Impacts METAR Board
IDs:

KIAD - Washington/Dulles In, VA, US

Updated at: 1300 UTC 30 Mar 2020
Potential Impact None Slight Moderate High
Time 30/01Z 30/02Z 30/03Z 30/04Z 30/05Z 30/06Z 30/07Z 30/08Z 30/09Z 30/10Z 30/11Z 30/12Z 30/13Z
Temp63 56 56 54 50 50 51 50 49 47 49 50 51
Dewpt56 53 53 52 48 49 49 46 46 44 48 49 50
Altim29.80 29.83 29.85 29.85 29.87 29.88 29.89 29.90 29.93 29.96 29.97 30.00 29.99
VIS10 10 10 7 5 4 5 10 10 10 0 0.25 0.25
CIG-- -- -- -- 250 250 250 250 250 250 2 2 3
CoverFEWFEWCLRFEWBKNBKNBKNBKNBKNBKNOVXOVXOVC
FltCatVFRVFRVFRVFRMVFRMVFRMVFRVFRVFRVFRLIFRLIFRLIFR
WX--------BRBRBR------FGFGFG
WDir9030340340003602070140130140160
WSpd5 4 4 4 0 0 4 4 3 5 4 5 6
WGst-- -- -- -- -- -- -- -- -- -- -- -- --
Raw hourly METARs
KIAD 300052Z 09005KT 10SM FEW060 17/13 A2980 RMK AO2 SLP090 T01720133
KIAD 300152Z 03004KT 10SM FEW060 13/12 A2983 RMK AO2 SLP100 T01330117
KIAD 300252Z 34004KT 10SM CLR 13/12 A2985 RMK AO2 SLP107 T01330117 51024
KIAD 300352Z 34004KT 7SM FEW250 12/11 A2985 RMK AO2 SLP109 T01220111
KIAD 300452Z 00000KT 5SM BR FEW002 BKN250 10/09 A2987 RMK AO2 SLP113 T01000089 402110094
KIAD 300552Z 00000KT 4SM R01R/2600VP6000FT BR SCT003 BKN250 10/09 A2988 RMK AO2 SLP117 T01000094 10194 20094 53010
KIAD 300652Z 36004KT 5SM BR SCT002 BKN250 11/09 A2989 RMK AO2 SLP120 VIS SW 2 T01060094 $
KIAD 300752Z 02004KT 10SM FEW002 BKN250 10/08 A2990 RMK AO2 SLP125 T01000078 $
KIAD 300852Z 07003KT 10SM BKN250 09/08 A2993 RMK AO2 SLP132 T00940078 53016 $
KIAD 300952Z 14005KT 10SM FEW002 BKN250 08/07 A2996 RMK AO2 SLP144 T00830067 $
KIAD 301052Z 13004KT 0SM R01R/1600V2200FT FG VV002 09/09 A2997 RMK AO2 SFC VIS 1/4 SLP149 T00940089 $
KIAD 301152Z 14005KT 1/4SM R01R/2000V5000FT FG VV002 10/09 A3000 RMK AO2 SLP158 T01000094 10106 20078 51025
KIAD 301252Z 16006KT 1/4SM R01R/P6000FT FG OVC003 11/10 A2999 RMK AO2 SLP156 VIS 1/4V1/2 T01060100



Page loaded:  13:00 UTC  |   06:00 AM Pacific  |   07:00 AM Mountain  |   08:00 AM Central  |   09:00 AM Eastern

 

ADVISORIES

FORECASTS

FORECASTS

OBSERVATIONS

USER TOOLS

ABOUT US